Time;durP1;ratioP1;P1;durP2;ratioP2;P2;SDS_P1;SDS_P2;PMS_P1;PMS_P2;Temp;Humidity;BMP_temperature;BMP_pressure;BME280_temperature;BME280_humidity;BME280_pressure;Samples;Min_cycle;Max_cycle;Signal;HPM_P1;HPM_P2
2022/04/19 00:01:31;;;;;;;;;12.50;10.50;;;;;;;;5102158;27;51076;-53
2022/04/19 00:03:56;;;;;;;;;8.75;8.75;;;;;;;;5107835;27;51076;-54
2022/04/19 00:06:21;;;;;;;;;12.50;11.75;;;;;;;;5104711;27;51149;-55
2022/04/19 00:08:48;;;;;;;;;9.00;9.00;;;;;;;;5102999;27;52019;-54
2022/04/19 00:11:13;;;;;;;;;9.50;9.00;;;;;;;;5104857;27;51014;-53
2022/04/19 00:13:38;;;;;;;;;8.75;8.75;;;;;;;;5112119;27;51265;-53
2022/04/19 00:16:04;;;;;;;;;9.25;9.25;;;;;;;;5104439;27;51150;-53
2022/04/19 00:18:29;;;;;;;;;9.50;9.00;;;;;;;;5103869;27;51819;-56
2022/04/19 00:20:54;;;;;;;;;9.00;8.00;;;;;;;;5107340;27;51014;-54
2022/04/19 00:23:20;;;;;;;;;10.00;8.50;;;;;;;;5104111;27;52047;-54
2022/04/19 00:25:46;;;;;;;;;6.50;6.50;;;;;;;;5109815;27;51240;-56
2022/04/19 00:28:12;;;;;;;;;8.00;8.00;;;;;;;;5105893;27;51171;-56
2022/04/19 00:30:38;;;;;;;;;7.50;7.50;;;;;;;;5110596;27;51092;-54
2022/04/19 00:33:03;;;;;;;;;9.25;7.00;;;;;;;;5113020;27;51438;-55
2022/04/19 00:35:29;;;;;;;;;9.00;9.00;;;;;;;;5108319;27;51169;-56
2022/04/19 00:37:54;;;;;;;;;8.75;6.50;;;;;;;;5111142;27;51733;-57
2022/04/19 00:40:19;;;;;;;;;7.50;7.50;;;;;;;;5110870;27;51132;-56
2022/04/19 00:42:45;;;;;;;;;6.25;5.00;;;;;;;;5110605;27;51294;-56
2022/04/19 00:45:10;;;;;;;;;6.50;6.00;;;;;;;;5109582;27;51390;-56
2022/04/19 00:47:38;;;;;;;;;6.25;6.00;;;;;;;;5108365;27;51131;-56
2022/04/19 00:50:04;;;;;;;;;8.00;7.00;;;;;;;;5112260;27;51242;-55
2022/04/19 00:52:30;;;;;;;;;7.25;6.50;;;;;;;;5102889;27;51115;-56
2022/04/19 00:54:55;;;;;;;;;9.00;8.75;;;;;;;;5111405;27;51087;-55
2022/04/19 00:57:22;;;;;;;;;6.50;6.50;;;;;;;;5107222;27;51086;-53
2022/04/19 00:59:48;;;;;;;;;8.50;7.00;;;;;;;;5111744;27;51168;-56
2022/04/19 01:02:14;;;;;;;;;8.50;8.00;;;;;;;;5104942;27;51063;-56
2022/04/19 01:04:39;;;;;;;;;8.25;7.50;;;;;;;;5106084;27;52028;-55
2022/04/19 01:07:04;;;;;;;;;7.25;7.00;;;;;;;;5096283;27;51715;-54
2022/04/19 01:09:30;;;;;;;;;6.25;5.75;;;;;;;;5088286;27;50902;-55
2022/04/19 01:14:40;;;;;;;;;7.00;7.00;;;;;;;;5106209;27;51032;-56
2022/04/19 01:17:08;;;;;;;;;7.00;6.25;;;;;;;;5099253;27;51743;-57
2022/04/19 01:19:38;;;;;;;;;9.25;8.00;;;;;;;;5090615;27;51189;-55
2022/04/19 01:22:04;;;;;;;;;8.25;7.75;;;;;;;;5098548;27;50873;-55
2022/04/19 01:24:29;;;;;;;;;8.50;7.75;;;;;;;;5106661;27;51269;-56
2022/04/19 01:26:55;;;;;;;;;6.00;6.00;;;;;;;;5101976;27;51970;-54
2022/04/19 01:29:20;;;;;;;;;8.75;8.00;;;;;;;;5111982;27;51104;-56
2022/04/19 01:31:46;;;;;;;;;6.50;6.50;;;;;;;;5112958;27;50957;-56
2022/04/19 01:34:11;;;;;;;;;5.25;5.25;;;;;;;;5114673;27;51292;-56
2022/04/19 01:36:37;;;;;;;;;6.00;3.75;;;;;;;;5102897;27;51251;-56
2022/04/19 01:39:03;;;;;;;;;9.00;8.25;;;;;;;;5112778;27;51165;-54
2022/04/19 01:41:28;;;;;;;;;7.25;5.50;;;;;;;;5095672;27;51197;-54
2022/04/19 01:43:53;;;;;;;;;5.00;4.25;;;;;;;;5114946;27;51427;-55
2022/04/19 01:46:19;;;;;;;;;4.50;4.00;;;;;;;;5106968;27;52668;-57
2022/04/19 01:48:44;;;;;;;;;5.00;5.00;;;;;;;;5110616;27;51151;-56
2022/04/19 01:51:11;;;;;;;;;3.75;3.75;;;;;;;;5108645;27;50949;-56
2022/04/19 01:53:36;;;;;;;;;6.75;6.25;;;;;;;;5112320;27;51289;-56
2022/04/19 01:56:01;;;;;;;;;5.00;4.25;;;;;;;;5110386;27;53374;-57
2022/04/19 01:58:26;;;;;;;;;5.00;5.00;;;;;;;;5105033;27;51345;-55
2022/04/19 02:00:51;;;;;;;;;3.00;3.00;;;;;;;;5110739;27;51179;-54
2022/04/19 02:03:18;;;;;;;;;3.50;3.50;;;;;;;;5109537;27;51297;-55
2022/04/19 02:05:43;;;;;;;;;5.50;5.00;;;;;;;;5100343;27;51283;-53
2022/04/19 02:08:08;;;;;;;;;5.75;4.25;;;;;;;;5108420;27;50991;-54
2022/04/19 02:10:33;;;;;;;;;5.00;5.00;;;;;;;;5109571;27;51225;-52
2022/04/19 02:12:58;;;;;;;;;4.00;3.50;;;;;;;;5112735;27;51578;-55
2022/04/19 02:15:24;;;;;;;;;3.00;2.50;;;;;;;;5109269;27;51715;-53
2022/04/19 02:17:49;;;;;;;;;5.00;4.00;;;;;;;;5111892;27;50929;-55
2022/04/19 02:20:16;;;;;;;;;6.50;6.00;;;;;;;;5093496;27;51148;-53
2022/04/19 02:22:41;;;;;;;;;4.75;4.75;;;;;;;;5114670;27;51290;-54
2022/04/19 02:25:09;;;;;;;;;6.00;5.00;;;;;;;;5111605;27;51144;-55
2022/04/19 02:27:34;;;;;;;;;4.00;4.00;;;;;;;;5111111;27;51178;-54
2022/04/19 02:30:04;;;;;;;;;6.00;6.00;;;;;;;;5104520;27;51426;-53
2022/04/19 02:32:30;;;;;;;;;6.00;5.00;;;;;;;;5097255;27;51617;-54
2022/04/19 02:34:55;;;;;;;;;6.00;5.75;;;;;;;;5095393;27;52248;-55
2022/04/19 02:37:20;;;;;;;;;8.00;7.75;;;;;;;;5099227;27;51145;-54
2022/04/19 02:39:49;;;;;;;;;7.25;7.00;;;;;;;;5114719;27;50941;-54
2022/04/19 02:42:14;;;;;;;;;6.50;6.50;;;;;;;;5104327;27;51295;-55
2022/04/19 02:44:39;;;;;;;;;6.00;4.75;;;;;;;;5111366;27;51080;-54
2022/04/19 02:47:05;;;;;;;;;4.50;4.50;;;;;;;;5106309;27;51055;-52
2022/04/19 02:49:30;;;;;;;;;5.75;5.50;;;;;;;;5114198;27;51096;-54
2022/04/19 02:51:55;;;;;;;;;6.00;5.50;;;;;;;;5111007;27;51062;-54
2022/04/19 02:54:21;;;;;;;;;7.50;6.00;;;;;;;;5094335;27;53042;-53
2022/04/19 02:56:47;;;;;;;;;5.75;5.75;;;;;;;;5110089;27;51119;-53
2022/04/19 02:59:12;;;;;;;;;7.25;5.75;;;;;;;;5110218;27;50814;-57
2022/04/19 03:01:38;;;;;;;;;5.50;5.50;;;;;;;;5110805;27;50975;-52
2022/04/19 03:04:03;;;;;;;;;5.25;5.25;;;;;;;;5113604;27;51059;-55
2022/04/19 03:06:28;;;;;;;;;4.75;4.75;;;;;;;;5103043;27;51036;-55
2022/04/19 03:08:54;;;;;;;;;7.25;5.25;;;;;;;;5095240;27;51353;-54
2022/04/19 03:11:19;;;;;;;;;6.00;5.75;;;;;;;;5103037;27;51234;-55
2022/04/19 03:13:44;;;;;;;;;7.00;5.50;;;;;;;;5109913;27;51734;-54
2022/04/19 03:16:13;;;;;;;;;5.00;3.25;;;;;;;;5101456;27;51185;-54
2022/04/19 03:18:39;;;;;;;;;2.75;2.75;;;;;;;;5110423;27;51119;-54
2022/04/19 03:21:04;;;;;;;;;6.25;6.25;;;;;;;;5110760;27;50977;-55
2022/04/19 03:28:56;;;;;;;;;4.00;4.00;;;;;;;;5114305;27;51075;-54
2022/04/19 03:31:22;;;;;;;;;6.25;5.25;;;;;;;;5105570;27;51261;-55
2022/04/19 03:33:49;;;;;;;;;4.75;4.00;;;;;;;;5112815;27;51208;-55
2022/04/19 03:36:14;;;;;;;;;6.00;5.00;;;;;;;;5110596;27;51211;-55
2022/04/19 03:38:39;;;;;;;;;5.25;5.00;;;;;;;;5114174;27;50986;-56
2022/04/19 03:41:05;;;;;;;;;5.00;3.50;;;;;;;;5106381;27;51172;-54
2022/04/19 03:43:32;;;;;;;;;5.50;4.00;;;;;;;;5103088;27;51796;-54
2022/04/19 03:45:57;;;;;;;;;4.50;4.50;;;;;;;;5103872;27;51809;-53
2022/04/19 03:48:22;;;;;;;;;5.00;4.75;;;;;;;;5104030;27;51203;-54
2022/04/19 03:50:50;;;;;;;;;5.00;5.00;;;;;;;;5102637;27;51605;-52
2022/04/19 03:53:15;;;;;;;;;4.00;3.00;;;;;;;;5102138;27;51738;-55
2022/04/19 03:55:40;;;;;;;;;3.25;3.25;;;;;;;;5108635;27;51469;-51
2022/04/19 03:58:05;;;;;;;;;3.00;3.00;;;;;;;;5102127;27;51022;-55
2022/04/19 04:00:30;;;;;;;;;3.50;3.50;;;;;;;;5110486;27;50853;-52
2022/04/19 04:02:56;;;;;;;;;3.50;3.50;;;;;;;;5112002;27;51623;-53
2022/04/19 04:05:24;;;;;;;;;5.75;5.00;;;;;;;;5110473;27;51169;-53
2022/04/19 04:07:49;;;;;;;;;5.75;4.75;;;;;;;;5091804;27;51232;-54
2022/04/19 04:10:15;;;;;;;;;4.00;4.00;;;;;;;;5102982;27;52524;-53
2022/04/19 04:12:40;;;;;;;;;3.50;3.50;;;;;;;;5103034;27;51029;-55
2022/04/19 04:15:06;;;;;;;;;6.00;5.00;;;;;;;;5093356;27;51175;-53
2022/04/19 04:17:31;;;;;;;;;5.00;3.00;;;;;;;;5101125;27;51048;-56
2022/04/19 04:19:59;;;;;;;;;4.75;4.75;;;;;;;;5113206;27;51027;-55
2022/04/19 04:22:25;;;;;;;;;5.50;4.25;;;;;;;;5105375;27;52440;-54
2022/04/19 04:24:50;;;;;;;;;4.75;4.25;;;;;;;;5100359;27;51166;-53
2022/04/19 04:27:15;;;;;;;;;5.00;4.00;;;;;;;;5100151;27;51209;-54
2022/04/19 04:29:41;;;;;;;;;4.50;4.00;;;;;;;;5110538;27;50968;-55
2022/04/19 04:32:07;;;;;;;;;4.75;4.75;;;;;;;;5108466;27;51866;-52
2022/04/19 04:34:32;;;;;;;;;4.25;3.50;;;;;;;;5112934;27;50918;-54
2022/04/19 04:36:57;;;;;;;;;6.00;5.50;;;;;;;;5103763;27;51015;-55
2022/04/19 04:39:22;;;;;;;;;5.00;5.00;;;;;;;;5111010;27;51290;-55
2022/04/19 04:41:48;;;;;;;;;4.00;4.00;;;;;;;;5105212;27;51315;-55
2022/04/19 04:44:13;;;;;;;;;4.00;4.00;;;;;;;;5111042;27;51082;-54
2022/04/19 04:49:39;;;;;;;;;5.00;3.00;;;;;;;;5106948;27;51423;-50
2022/04/19 04:52:09;;;;;;;;;4.25;3.00;;;;;;;;5106166;27;52106;-53
2022/04/19 04:54:34;;;;;;;;;5.00;4.25;;;;;;;;5110222;27;51070;-54
2022/04/19 04:57:00;;;;;;;;;4.00;4.00;;;;;;;;5110400;27;51103;-53
2022/04/19 04:59:26;;;;;;;;;14.75;14.75;;;;;;;;5120465;27;51276;-55
2022/04/19 05:01:51;;;;;;;;;5.25;5.00;;;;;;;;5097130;27;53322;-54
2022/04/19 05:04:16;;;;;;;;;11.00;10.00;;;;;;;;5118845;27;51149;-55
2022/04/19 05:06:42;;;;;;;;;4.25;3.00;;;;;;;;5110011;27;51982;-56
2022/04/19 05:09:07;;;;;;;;;6.25;4.00;;;;;;;;5112444;27;51024;-56
2022/04/19 05:11:32;;;;;;;;;4.00;3.75;;;;;;;;5115224;27;52525;-56
2022/04/19 05:13:57;;;;;;;;;5.25;4.25;;;;;;;;5119834;27;51009;-55
2022/04/19 05:16:23;;;;;;;;;4.00;3.25;;;;;;;;5085852;27;51385;-54
2022/04/19 05:18:48;;;;;;;;;5.75;4.75;;;;;;;;5111707;27;50944;-55
2022/04/19 05:21:14;;;;;;;;;6.00;5.00;;;;;;;;5113654;27;52148;-53
2022/04/19 05:23:39;;;;;;;;;5.25;4.50;;;;;;;;5119962;27;51023;-53
2022/04/19 05:26:04;;;;;;;;;4.25;4.25;;;;;;;;5113307;27;51300;-54
2022/04/19 05:28:29;;;;;;;;;6.00;5.25;;;;;;;;5118884;27;50862;-54
2022/04/19 05:30:55;;;;;;;;;3.00;3.00;;;;;;;;5112360;27;51920;-56
2022/04/19 05:33:20;;;;;;;;;3.75;2.50;;;;;;;;5117752;27;51055;-54
2022/04/19 05:35:45;;;;;;;;;2.00;2.00;;;;;;;;5116439;27;50998;-57
2022/04/19 05:38:11;;;;;;;;;4.00;4.00;;;;;;;;5120117;27;51285;-54
2022/04/19 05:40:38;;;;;;;;;4.50;3.75;;;;;;;;5112989;27;52077;-54
2022/04/19 05:43:04;;;;;;;;;3.00;3.00;;;;;;;;5107790;27;51109;-54
2022/04/19 05:45:29;;;;;;;;;6.50;5.00;;;;;;;;5114223;27;51313;-53
2022/04/19 05:47:54;;;;;;;;;4.00;4.00;;;;;;;;5105343;27;51094;-55
2022/04/19 05:50:20;;;;;;;;;4.75;4.75;;;;;;;;5109328;27;51826;-52
2022/04/19 05:52:45;;;;;;;;;4.00;3.00;;;;;;;;5110041;27;50990;-52
2022/04/19 05:55:10;;;;;;;;;4.75;4.00;;;;;;;;5091860;27;51020;-53
2022/04/19 05:57:35;;;;;;;;;5.75;4.00;;;;;;;;5107499;27;51133;-54
2022/04/19 06:00:01;;;;;;;;;4.75;4.25;;;;;;;;5114839;27;51079;-54
2022/04/19 06:05:10;;;;;;;;;3.25;3.25;;;;;;;;5104169;27;51126;-54
2022/04/19 06:07:42;;;;;;;;;5.00;5.00;;;;;;;;5110215;27;51204;-55
2022/04/19 06:10:07;;;;;;;;;6.00;5.00;;;;;;;;5099840;27;51900;-56
2022/04/19 06:12:33;;;;;;;;;5.75;5.75;;;;;;;;5103373;27;51127;-56
2022/04/19 06:14:58;;;;;;;;;6.00;5.00;;;;;;;;5113226;27;51008;-57
2022/04/19 06:17:27;;;;;;;;;6.75;6.50;;;;;;;;5101540;27;51044;-57
2022/04/19 06:19:52;;;;;;;;;8.75;8.25;;;;;;;;5112549;27;52549;-59
2022/04/19 06:22:17;;;;;;;;;7.50;7.00;;;;;;;;5109614;27;51040;-56
2022/04/19 06:24:42;;;;;;;;;6.33;6.33;;;;;;;;5114571;27;51255;-57
2022/04/19 06:27:08;;;;;;;;;7.50;7.25;;;;;;;;5099120;27;51142;-57
2022/04/19 06:29:33;;;;;;;;;6.00;6.00;;;;;;;;5113679;27;50936;-57
2022/04/19 06:31:58;;;;;;;;;8.00;7.00;;;;;;;;5109402;27;51107;-59
2022/04/19 06:34:24;;;;;;;;;8.00;6.33;;;;;;;;5115020;27;51258;-55
2022/04/19 06:36:49;;;;;;;;;8.00;7.33;;;;;;;;5100581;27;51018;-56
2022/04/19 06:39:14;;;;;;;;;9.00;8.00;;;;;;;;5115192;27;51161;-58
2022/04/19 06:41:41;;;;;;;;;7.33;7.33;;;;;;;;5104185;27;51184;-56
2022/04/19 06:44:08;;;;;;;;;6.33;6.33;;;;;;;;5108729;27;51243;-54
2022/04/19 06:46:34;;;;;;;;;7.00;7.00;;;;;;;;5110736;27;51168;-54
2022/04/19 06:48:59;;;;;;;;;7.00;7.00;;;;;;;;5116754;27;51209;-57
2022/04/19 06:51:29;;;;;;;;;9.50;8.50;;;;;;;;5108547;27;51526;-55
2022/04/19 06:53:55;;;;;;;;;8.00;7.00;;;;;;;;5113050;27;51143;-56
2022/04/19 06:56:20;;;;;;;;;7.67;6.00;;;;;;;;5119127;27;51645;-55
2022/04/19 06:58:45;;;;;;;;;9.00;8.00;;;;;;;;5114309;27;51814;-57
2022/04/19 07:01:11;;;;;;;;;11.00;9.67;;;;;;;;5112254;27;51072;-58
2022/04/19 07:03:37;;;;;;;;;11.00;10.00;;;;;;;;5115874;27;51303;-54
2022/04/19 07:06:03;;;;;;;;;9.67;9.67;;;;;;;;5092954;27;51364;-55
2022/04/19 07:08:28;;;;;;;;;11.00;9.67;;;;;;;;5112395;27;51922;-57
2022/04/19 07:10:53;;;;;;;;;12.33;10.00;;;;;;;;5110245;27;51145;-57
2022/04/19 07:13:19;;;;;;;;;10.67;9.00;;;;;;;;5113236;27;51050;-56
2022/04/19 07:15:45;;;;;;;;;11.00;9.00;;;;;;;;5092657;27;51243;-56
2022/04/19 07:18:10;;;;;;;;;8.33;8.33;;;;;;;;5115417;27;51090;-55
2022/04/19 07:28:47;;;;;;;;;7.67;7.67;;;;;;;;5101236;27;51532;-57
2022/04/19 07:31:13;;;;;;;;;9.00;9.00;;;;;;;;5119697;27;51260;-56
2022/04/19 07:33:39;;;;;;;;;9.67;9.00;;;;;;;;5113700;27;51010;-56
2022/04/19 07:36:05;;;;;;;;;9.67;9.00;;;;;;;;5113435;27;51320;-55
2022/04/19 07:38:30;;;;;;;;;7.67;7.67;;;;;;;;5091466;27;51586;-56
2022/04/19 07:40:56;;;;;;;;;7.00;7.00;;;;;;;;5099101;27;51151;-57
2022/04/19 07:43:21;;;;;;;;;9.33;8.33;;;;;;;;5112057;27;51298;-56
2022/04/19 07:45:46;;;;;;;;;10.00;8.67;;;;;;;;5110510;27;51604;-57
2022/04/19 07:48:12;;;;;;;;;8.33;8.00;;;;;;;;5107626;27;52502;-57
2022/04/19 07:50:39;;;;;;;;;11.67;10.67;;;;;;;;5118404;27;51042;-59
2022/04/19 07:53:04;;;;;;;;;6.67;6.00;;;;;;;;5114410;27;50882;-59
2022/04/19 07:55:30;;;;;;;;;6.00;6.00;;;;;;;;5114217;27;51316;-58
2022/04/19 07:57:55;;;;;;;;;9.67;7.00;;;;;;;;5114216;27;52221;-59
2022/04/19 08:00:21;;;;;;;;;7.33;7.33;;;;;;;;5093764;27;51097;-58
2022/04/19 08:02:47;;;;;;;;;11.67;10.00;;;;;;;;5112715;27;51426;-58
2022/04/19 08:05:12;;;;;;;;;9.67;7.00;;;;;;;;5114612;27;50902;-59
2022/04/19 08:07:38;;;;;;;;;9.67;8.67;;;;;;;;5113903;27;51668;-58
2022/04/19 08:10:03;;;;;;;;;10.33;9.00;;;;;;;;5114075;27;50854;-56
2022/04/19 08:12:29;;;;;;;;;9.00;7.00;;;;;;;;5113418;27;51323;-57
2022/04/19 08:14:55;;;;;;;;;8.00;7.00;;;;;;;;5114314;27;51142;-58
2022/04/19 08:17:21;;;;;;;;;7.33;7.33;;;;;;;;5104694;27;52350;-57
2022/04/19 08:19:46;;;;;;;;;9.33;8.67;;;;;;;;5095154;27;51062;-57
2022/04/19 08:22:11;;;;;;;;;7.67;7.67;;;;;;;;5106269;27;51312;-58
2022/04/19 08:24:37;;;;;;;;;8.33;8.33;;;;;;;;5107074;27;51713;-57
2022/04/19 08:27:04;;;;;;;;;8.33;8.33;;;;;;;;5091348;27;54137;-58
2022/04/19 08:29:29;;;;;;;;;10.00;9.00;;;;;;;;5113789;27;50968;-59
2022/04/19 08:31:55;;;;;;;;;10.00;9.33;;;;;;;;5112976;27;51012;-59
2022/04/19 08:34:20;;;;;;;;;3.00;2.33;;;;;;;;5103367;27;51134;-59
2022/04/19 08:36:46;;;;;;;;;4.67;4.67;;;;;;;;5113328;27;52210;-57
2022/04/19 08:39:12;;;;;;;;;8.00;7.33;;;;;;;;5108558;27;50969;-58
2022/04/19 08:41:38;;;;;;;;;7.33;6.00;;;;;;;;5088424;27;51436;-59
2022/04/19 08:44:04;;;;;;;;;4.00;4.00;;;;;;;;5093267;27;51337;-57
2022/04/19 08:46:31;;;;;;;;;10.00;10.00;;;;;;;;5093620;27;53252;-58
2022/04/19 08:49:01;;;;;;;;;9.00;8.33;;;;;;;;5099662;27;51035;-58
2022/04/19 08:51:28;;;;;;;;;8.67;8.67;;;;;;;;5111174;27;51015;-58
2022/04/19 08:59:32;;;;;;;;;8.67;7.00;;;;;;;;5112795;27;51221;-58
2022/04/19 09:01:59;;;;;;;;;10.00;9.00;;;;;;;;5112947;27;50999;-58
2022/04/19 09:04:25;;;;;;;;;8.00;8.00;;;;;;;;5094675;27;51066;-58
2022/04/19 09:06:55;;;;;;;;;9.00;9.00;;;;;;;;5112931;27;51418;-58
2022/04/19 09:09:24;;;;;;;;;6.33;6.33;;;;;;;;5113229;27;50987;-58
2022/04/19 09:11:50;;;;;;;;;13.00;13.00;;;;;;;;5112730;27;50999;-57
2022/04/19 09:14:16;;;;;;;;;8.00;8.00;;;;;;;;5093577;27;50977;-59
2022/04/19 09:16:41;;;;;;;;;8.00;8.00;;;;;;;;5112895;27;51072;-59
2022/04/19 09:19:10;;;;;;;;;9.00;8.00;;;;;;;;5112982;27;51018;-60
2022/04/19 09:21:37;;;;;;;;;9.67;9.00;;;;;;;;5112762;27;50887;-59
2022/04/19 09:24:15;;;;;;;;;8.00;8.00;;;;;;;;5112839;27;51289;-58
2022/04/19 09:26:44;;;;;;;;;11.33;8.67;;;;;;;;5106372;27;51196;-58
2022/04/19 09:29:18;;;;;;;;;7.67;7.67;;;;;;;;5105150;27;50890;-59
2022/04/19 09:31:43;;;;;;;;;8.67;8.00;;;;;;;;5097895;27;51105;-58
2022/04/19 09:34:09;;;;;;;;;11.00;9.00;;;;;;;;5104056;27;51117;-59
2022/04/19 09:36:34;;;;;;;;;9.67;9.00;;;;;;;;5110266;27;50994;-59
2022/04/19 09:38:59;;;;;;;;;9.67;8.67;;;;;;;;5100917;27;51025;-58
2022/04/19 09:41:29;;;;;;;;;10.00;9.00;;;;;;;;5109964;27;52364;-58
2022/04/19 09:44:07;;;;;;;;;10.00;9.33;;;;;;;;5102388;27;52204;-59
2022/04/19 09:46:32;;;;;;;;;16.00;12.67;;;;;;;;5106608;27;51018;-58
2022/04/19 09:48:58;;;;;;;;;10.33;10.33;;;;;;;;5115404;27;51281;-58
2022/04/19 09:51:30;;;;;;;;;14.00;12.33;;;;;;;;5115941;27;51027;-58
2022/04/19 09:53:56;;;;;;;;;12.67;10.67;;;;;;;;5115645;27;51049;-59
2022/04/19 09:56:21;;;;;;;;;11.00;11.00;;;;;;;;5103895;27;51825;-57
2022/04/19 09:58:47;;;;;;;;;15.33;13.33;;;;;;;;5104667;27;51056;-59
2022/04/19 10:09:31;;;;;;;;;8.67;8.33;;;;;;;;5110601;27;51262;-57
2022/04/19 10:11:57;;;;;;;;;17.00;17.00;;;;;;;;5105016;27;51111;-59
2022/04/19 10:14:22;;;;;;;;;14.00;13.00;;;;;;;;5103544;27;51100;-59
2022/04/19 10:16:51;;;;;;;;;15.00;14.00;;;;;;;;5114631;27;52990;-59
2022/04/19 10:19:17;;;;;;;;;12.00;11.33;;;;;;;;5102268;27;51113;-58
2022/04/19 10:21:44;;;;;;;;;10.67;10.00;;;;;;;;5112141;27;51021;-59
2022/04/19 10:24:10;;;;;;;;;9.00;8.67;;;;;;;;5115245;27;51342;-60
2022/04/19 10:26:40;;;;;;;;;11.00;10.00;;;;;;;;5106303;27;50893;-59
2022/04/19 10:29:14;;;;;;;;;12.00;12.00;;;;;;;;5112430;27;51065;-59
2022/04/19 10:31:40;;;;;;;;;6.00;6.00;;;;;;;;5104659;27;50956;-59
2022/04/19 10:34:05;;;;;;;;;12.67;12.67;;;;;;;;5105451;27;50976;-59
2022/04/19 10:36:39;;;;;;;;;10.00;9.67;;;;;;;;5096010;27;52079;-58
2022/04/19 10:39:08;;;;;;;;;12.00;12.00;;;;;;;;5114420;27;51167;-58
2022/04/19 10:41:48;;;;;;;;;9.33;9.33;;;;;;;;5114247;27;51121;-58
2022/04/19 10:44:29;;;;;;;;;9.33;9.00;;;;;;;;5112295;27;51187;-58
2022/04/19 10:47:16;;;;;;;;;9.67;9.33;;;;;;;;5114252;27;52030;-58
2022/04/19 10:49:58;;;;;;;;;9.67;9.33;;;;;;;;5112293;27;50942;-58
2022/04/19 10:52:50;;;;;;;;;9.33;8.67;;;;;;;;5096124;27;51004;-60
2022/04/19 10:55:18;;;;;;;;;10.00;10.00;;;;;;;;5109428;27;51212;-58
2022/04/19 10:58:12;;;;;;;;;13.00;12.00;;;;;;;;5113902;27;51787;-58
2022/04/19 11:00:37;;;;;;;;;10.67;10.67;;;;;;;;5077331;27;51317;-59
2022/04/19 11:03:02;;;;;;;;;12.00;12.00;;;;;;;;5114763;27;51006;-58
2022/04/19 11:05:46;;;;;;;;;13.67;12.00;;;;;;;;5113910;27;52058;-58
2022/04/19 11:08:26;;;;;;;;;10.67;10.67;;;;;;;;5108746;27;53209;-58
2022/04/19 11:11:20;;;;;;;;;8.33;8.00;;;;;;;;5113677;27;50857;-58
2022/04/19 11:14:06;;;;;;;;;11.67;11.67;;;;;;;;5092770;27;51107;-59
2022/04/19 11:16:40;;;;;;;;;12.33;12.00;;;;;;;;5094829;27;51098;-59
2022/04/19 11:19:13;;;;;;;;;12.67;12.00;;;;;;;;5114067;27;51091;-59
2022/04/19 11:21:52;;;;;;;;;12.00;11.00;;;;;;;;5109391;27;51181;-58
2022/04/19 11:24:36;;;;;;;;;14.67;12.00;;;;;;;;5107080;27;51049;-58
2022/04/19 11:27:01;;;;;;;;;12.33;10.33;;;;;;;;5103449;27;51517;-60
2022/04/19 11:29:27;;;;;;;;;13.33;12.67;;;;;;;;5114144;27;51031;-58
2022/04/19 11:31:53;;;;;;;;;13.67;11.67;;;;;;;;5114454;27;51046;-60
2022/04/19 11:34:18;;;;;;;;;14.33;14.00;;;;;;;;5114269;27;51510;-59
2022/04/19 11:36:43;;;;;;;;;11.67;10.00;;;;;;;;5114362;27;51423;-60
2022/04/19 11:46:43;;;;;;;;;15.33;15.00;;;;;;;;5113402;27;52123;-58
2022/04/19 11:47:46;;;;;;;;;16.00;15.00;;;;;;;;5112116;27;51032;-58
2022/04/19 11:50:31;;;;;;;;;20.00;18.33;;;;;;;;5111983;27;51982;-58
2022/04/19 11:53:00;;;;;;;;;16.00;15.75;;;;;;;;5112758;27;51042;-59
2022/04/19 11:55:27;;;;;;;;;20.67;19.67;;;;;;;;5112197;27;50937;-59
2022/04/19 11:58:02;;;;;;;;;12.33;12.33;;;;;;;;5110688;27;51234;-58
2022/04/19 12:00:27;;;;;;;;;17.00;16.00;;;;;;;;5112589;27;52526;-60
2022/04/19 12:02:52;;;;;;;;;15.33;15.00;;;;;;;;5113534;27;50893;-58
2022/04/19 12:05:25;;;;;;;;;16.33;15.67;;;;;;;;5113005;27;51083;-59
2022/04/19 12:07:52;;;;;;;;;16.00;14.67;;;;;;;;5114132;27;50854;-58
2022/04/19 12:10:17;;;;;;;;;14.33;13.67;;;;;;;;5093158;27;53001;-59
2022/04/19 12:12:43;;;;;;;;;15.67;14.00;;;;;;;;5095128;27;50973;-59
2022/04/19 12:15:08;;;;;;;;;15.33;15.00;;;;;;;;5113295;27;51013;-58
2022/04/19 12:17:42;;;;;;;;;17.00;17.00;;;;;;;;5114050;27;51115;-60
2022/04/19 12:20:08;;;;;;;;;20.67;19.00;;;;;;;;5113416;27;50922;-59
2022/04/19 12:22:34;;;;;;;;;16.33;16.00;;;;;;;;5095250;27;51129;-62
2022/04/19 12:25:00;;;;;;;;;16.00;15.00;;;;;;;;5113392;27;51139;-60
2022/04/19 12:27:26;;;;;;;;;17.00;16.00;;;;;;;;5113405;27;51122;-59
2022/04/19 12:29:56;;;;;;;;;17.00;14.67;;;;;;;;5103457;27;51741;-59
2022/04/19 12:32:21;;;;;;;;;15.00;15.00;;;;;;;;5109158;27;51078;-59
2022/04/19 12:34:46;;;;;;;;;17.00;16.33;;;;;;;;5094656;27;50902;-59
2022/04/19 12:37:13;;;;;;;;;17.00;16.00;;;;;;;;5111944;27;50824;-60
2022/04/19 12:39:39;;;;;;;;;15.00;12.33;;;;;;;;5094567;27;53512;-60
2022/04/19 12:42:09;;;;;;;;;13.67;13.00;;;;;;;;5091563;27;51248;-60
2022/04/19 12:44:35;;;;;;;;;9.33;9.33;;;;;;;;5102661;27;50829;-60
2022/04/19 12:47:02;;;;;;;;;7.67;7.67;;;;;;;;5112867;27;50902;-60
2022/04/19 12:49:31;;;;;;;;;7.67;7.00;;;;;;;;5112656;27;52668;-60
2022/04/19 12:52:06;;;;;;;;;11.33;10.00;;;;;;;;5112230;27;51010;-60
2022/04/19 12:54:33;;;;;;;;;9.00;8.00;;;;;;;;5094634;27;51067;-61
2022/04/19 12:59:53;;;;;;;;;10.33;9.00;;;;;;;;5113141;27;50920;-59
2022/04/19 13:02:19;;;;;;;;;9.00;9.00;;;;;;;;5112867;27;50937;-60
2022/04/19 13:04:45;;;;;;;;;9.00;9.00;;;;;;;;5094311;27;50936;-58
2022/04/19 13:12:37;;;;;;;;;12.00;10.67;;;;;;;;5112834;27;51104;-60
2022/04/19 13:15:06;;;;;;;;;8.33;8.00;;;;;;;;5113096;27;51430;-60
2022/04/19 13:17:32;;;;;;;;;7.33;6.67;;;;;;;;5096640;27;51054;-60
2022/04/19 13:19:58;;;;;;;;;9.33;9.00;;;;;;;;5116521;27;50924;-59
2022/04/19 13:22:23;;;;;;;;;9.00;9.00;;;;;;;;5116135;27;51118;-60
2022/04/19 13:24:50;;;;;;;;;8.67;8.67;;;;;;;;5116494;27;51034;-59
2022/04/19 13:27:15;;;;;;;;;10.00;8.33;;;;;;;;5116307;27;51091;-60
2022/04/19 13:29:41;;;;;;;;;7.67;7.00;;;;;;;;5108737;27;51029;-59
2022/04/19 13:32:07;;;;;;;;;10.00;9.33;;;;;;;;5110007;27;50999;-59
2022/04/19 13:34:33;;;;;;;;;9.00;8.33;;;;;;;;5097991;27;51011;-59
2022/04/19 13:36:58;;;;;;;;;8.00;7.00;;;;;;;;5098196;27;51080;-59
2022/04/19 13:39:24;;;;;;;;;8.00;7.33;;;;;;;;5115779;27;51743;-59
2022/04/19 13:41:49;;;;;;;;;7.67;7.67;;;;;;;;5115486;27;50927;-59
2022/04/19 13:44:15;;;;;;;;;7.67;6.33;;;;;;;;5116255;27;51190;-60
2022/04/19 13:46:41;;;;;;;;;8.33;7.67;;;;;;;;5116593;27;51157;-59
2022/04/19 13:49:06;;;;;;;;;9.33;9.00;;;;;;;;5115892;27;52563;-59
2022/04/19 13:51:33;;;;;;;;;9.33;8.00;;;;;;;;5115920;27;50934;-59
2022/04/19 13:53:58;;;;;;;;;7.33;6.67;;;;;;;;5116191;27;51156;-59
2022/04/19 13:56:23;;;;;;;;;9.00;8.67;;;;;;;;5115540;27;50974;-59
2022/04/19 13:58:48;;;;;;;;;8.67;8.00;;;;;;;;5115593;27;51832;-59
2022/04/19 14:01:14;;;;;;;;;8.67;8.67;;;;;;;;5115883;27;51062;-59
2022/04/19 14:03:39;;;;;;;;;8.67;8.00;;;;;;;;5115648;27;51253;-59
2022/04/19 14:06:04;;;;;;;;;7.00;6.67;;;;;;;;5115965;27;50999;-61
2022/04/19 14:08:31;;;;;;;;;6.33;6.33;;;;;;;;5115176;27;51503;-59
2022/04/19 14:10:58;;;;;;;;;8.00;8.00;;;;;;;;5115402;27;51082;-59
2022/04/19 14:13:23;;;;;;;;;11.00;10.00;;;;;;;;5115546;27;50926;-59
2022/04/19 14:15:51;;;;;;;;;10.33;10.33;;;;;;;;5115617;27;50858;-58
2022/04/19 14:18:16;;;;;;;;;7.00;7.00;;;;;;;;5114859;27;52121;-59
2022/04/19 14:20:41;;;;;;;;;10.67;9.00;;;;;;;;5115268;27;50849;-60
2022/04/19 14:23:07;;;;;;;;;10.00;8.75;;;;;;;;5115144;27;51142;-59
2022/04/19 14:25:32;;;;;;;;;8.67;8.00;;;;;;;;5115550;27;51110;-59
2022/04/19 14:27:58;;;;;;;;;6.67;6.33;;;;;;;;5114382;27;51657;-59
2022/04/19 14:33:18;;;;;;;;;8.00;8.00;;;;;;;;5115462;27;50871;-59
2022/04/19 14:35:45;;;;;;;;;7.00;7.00;;;;;;;;5095192;27;51059;-59
2022/04/19 14:38:10;;;;;;;;;9.67;8.00;;;;;;;;5114627;27;51819;-59
2022/04/19 14:40:35;;;;;;;;;7.00;7.00;;;;;;;;5104583;27;51003;-59
2022/04/19 14:43:01;;;;;;;;;8.00;7.67;;;;;;;;5115400;27;50956;-59
2022/04/19 14:45:26;;;;;;;;;7.00;6.67;;;;;;;;5115125;27;51093;-59
2022/04/19 14:47:51;;;;;;;;;7.00;7.00;;;;;;;;5115185;27;51834;-59
2022/04/19 14:50:16;;;;;;;;;10.00;9.33;;;;;;;;5114875;27;51170;-60
2022/04/19 14:52:42;;;;;;;;;9.00;8.00;;;;;;;;5114869;27;51192;-60
2022/04/19 14:55:08;;;;;;;;;8.67;8.67;;;;;;;;5115004;27;51207;-60
2022/04/19 14:57:33;;;;;;;;;7.67;6.33;;;;;;;;5114710;27;53685;-60
2022/04/19 14:59:59;;;;;;;;;9.00;9.00;;;;;;;;5114415;27;50987;-60
2022/04/19 15:02:24;;;;;;;;;7.00;7.00;;;;;;;;5114624;27;50895;-59
2022/04/19 15:04:50;;;;;;;;;7.67;7.00;;;;;;;;5114625;27;51294;-61
2022/04/19 15:07:15;;;;;;;;;9.00;8.00;;;;;;;;5114261;27;51891;-60
2022/04/19 15:09:41;;;;;;;;;6.00;6.00;;;;;;;;5102445;27;50915;-60
2022/04/19 15:12:08;;;;;;;;;10.33;8.67;;;;;;;;5114311;27;51096;-60
2022/04/19 15:14:35;;;;;;;;;8.00;7.00;;;;;;;;5114608;27;51019;-60
2022/04/19 15:17:00;;;;;;;;;8.00;8.00;;;;;;;;5114137;27;51137;-60
2022/04/19 15:19:26;;;;;;;;;9.33;8.33;;;;;;;;5113903;27;52114;-60
2022/04/19 15:21:51;;;;;;;;;6.67;6.67;;;;;;;;5096257;27;51071;-60
2022/04/19 15:24:16;;;;;;;;;7.00;7.00;;;;;;;;5114283;27;51166;-60
2022/04/19 15:26:45;;;;;;;;;7.67;7.67;;;;;;;;5113149;27;51148;-60
2022/04/19 15:29:11;;;;;;;;;6.67;6.67;;;;;;;;5111061;27;51053;-60